createdAt,value
2023-02-19T00:04:24.811Z,101425.00
2023-02-19T00:06:53.865Z,101445.00
2023-02-19T00:13:59.851Z,101433.00
2023-02-19T00:16:36.618Z,101424.00
2023-02-19T00:19:09.483Z,101438.00
2023-02-19T00:21:36.960Z,101420.00
2023-02-19T00:24:07.279Z,101415.00
2023-02-19T00:26:35.687Z,101416.00
2023-02-19T00:29:03.307Z,101412.00
2023-02-19T00:31:34.294Z,101404.00
2023-02-19T00:34:06.048Z,101419.00
2023-02-19T00:36:36.862Z,101402.00
2023-02-19T00:39:06.277Z,101416.00
2023-02-19T00:41:34.996Z,101410.00
2023-02-19T00:44:06.571Z,101397.00
2023-02-19T00:46:46.765Z,101406.00
2023-02-19T00:49:23.253Z,101405.00
2023-02-19T00:51:53.546Z,101409.00
2023-02-19T00:54:22.905Z,101405.00
2023-02-19T00:56:51.024Z,101398.00
2023-02-19T00:59:18.439Z,101403.00
2023-02-19T01:02:42.099Z,101412.00
2023-02-19T01:05:28.209Z,101407.00
2023-02-19T01:07:58.078Z,101417.00
2023-02-19T01:10:25.477Z,101404.00
2023-02-19T01:17:18.018Z,101430.00
2023-02-19T01:19:45.182Z,101414.00
2023-02-19T01:22:13.072Z,101428.00
2023-02-19T01:24:40.431Z,101424.00
2023-02-19T01:27:07.757Z,101428.00
2023-02-19T01:29:35.232Z,101429.00
2023-02-19T01:32:02.960Z,101432.00
2023-02-19T01:34:33.561Z,101439.00
2023-02-19T01:37:01.023Z,101437.00
2023-02-19T01:39:28.498Z,101430.00
2023-02-19T01:41:58.970Z,101443.00
2023-02-19T01:44:29.037Z,101444.00
2023-02-19T01:46:59.224Z,101443.00
2023-02-19T01:49:49.080Z,101446.00
2023-02-19T02:04:45.984Z,101453.00
2023-02-19T02:12:46.291Z,101460.00
2023-02-19T02:15:16.692Z,101454.00
2023-02-19T02:18:21.307Z,101455.00
2023-02-19T02:21:46.526Z,101467.00
2023-02-19T02:24:50.296Z,101453.00
2023-02-19T02:27:48.213Z,101449.00
2023-02-19T02:30:37.922Z,101440.00
2023-02-19T02:33:20.231Z,101443.00
2023-02-19T02:35:58.261Z,101440.00
2023-02-19T02:38:32.176Z,101448.00
2023-02-19T02:41:00.804Z,101448.00
2023-02-19T02:43:28.890Z,101451.00
2023-02-19T02:45:56.954Z,101449.00
2023-02-19T02:48:38.950Z,101448.00
2023-02-19T02:51:43.793Z,101459.00
2023-02-19T02:54:37.756Z,101455.00
2023-02-19T02:57:09.522Z,101437.00
2023-02-19T02:59:40.400Z,101444.00
2023-02-19T03:02:30.486Z,101454.00
2023-02-19T03:05:25.436Z,101457.00
2023-02-19T03:08:15.622Z,101462.00
2023-02-19T03:10:52.545Z,101459.00
2023-02-19T03:13:55.952Z,101462.00
2023-02-19T03:16:55.140Z,101467.00
2023-02-19T03:19:27.566Z,101477.00
2023-02-19T03:26:04.693Z,101474.00
2023-02-19T03:28:54.949Z,101476.00
2023-02-19T03:31:28.514Z,101472.00
2023-02-19T03:34:03.011Z,101483.00
2023-02-19T03:36:48.698Z,101487.00
2023-02-19T03:39:22.980Z,101493.00
2023-02-19T03:41:56.225Z,101491.00
2023-02-19T03:45:08.013Z,101487.00
2023-02-19T03:47:58.031Z,101493.00
2023-02-19T03:51:13.320Z,101482.00
2023-02-19T03:58:15.161Z,101501.00
2023-02-19T04:04:53.388Z,101512.00
2023-02-19T04:07:24.171Z,101518.00
2023-02-19T04:09:52.519Z,101518.00
2023-02-19T04:12:22.038Z,101512.00
2023-02-19T04:15:18.116Z,101534.00
2023-02-19T04:17:56.480Z,101531.00
2023-02-19T04:20:29.885Z,101540.00
2023-02-19T04:22:58.560Z,101549.00
2023-02-19T04:25:29.373Z,101555.00
2023-02-19T04:27:56.929Z,101534.00
2023-02-19T04:30:24.355Z,101554.00
2023-02-19T04:32:51.703Z,101538.00
2023-02-19T04:35:19.045Z,101555.00
2023-02-19T04:37:48.816Z,101553.00
2023-02-19T04:40:16.175Z,101558.00
2023-02-19T04:42:43.435Z,101554.00
2023-02-19T04:45:10.640Z,101562.00
2023-02-19T04:47:38.077Z,101569.00
2023-02-19T04:50:06.265Z,101566.00
2023-02-19T04:52:33.607Z,101587.00
2023-02-19T04:55:01.645Z,101586.00
2023-02-19T05:01:29.031Z,101588.00
2023-02-19T05:12:16.484Z,101613.00
2023-02-19T05:14:43.855Z,101623.00
2023-02-19T05:17:11.240Z,101630.00
2023-02-19T05:19:38.556Z,101627.00
2023-02-19T05:22:05.851Z,101619.00
2023-02-19T05:24:33.179Z,101626.00
2023-02-19T05:27:00.840Z,101620.00
2023-02-19T05:29:31.404Z,101625.00
2023-02-19T05:31:58.790Z,101620.00
2023-02-19T05:34:26.223Z,101622.00
2023-02-19T05:36:53.540Z,101627.00
2023-02-19T05:39:21.013Z,101641.00
2023-02-19T05:41:50.745Z,101625.00
2023-02-19T05:44:17.822Z,101624.00
2023-02-19T05:46:45.409Z,101626.00
2023-02-19T05:49:12.945Z,101638.00
2023-02-19T05:51:40.361Z,101641.00
2023-02-19T05:54:07.809Z,101636.00
2023-02-19T05:56:42.860Z,101642.00
2023-02-19T05:59:26.089Z,101643.00
2023-02-19T06:01:55.060Z,101646.00
2023-02-19T06:04:23.608Z,101654.00
2023-02-19T06:06:51.120Z,101641.00
2023-02-19T06:09:18.719Z,101644.00
2023-02-19T06:11:46.126Z,101641.00
2023-02-19T06:14:15.327Z,101644.00
2023-02-19T06:16:43.201Z,101642.00
2023-02-19T06:19:10.677Z,101637.00
2023-02-19T06:21:38.028Z,101653.00
2023-02-19T06:24:08.483Z,101664.00
2023-02-19T06:26:36.281Z,101663.00
2023-02-19T06:29:04.279Z,101664.00
2023-02-19T06:31:31.817Z,101677.00
2023-02-19T06:33:59.495Z,101665.00
2023-02-19T06:36:26.926Z,101681.00
2023-02-19T06:38:54.324Z,101667.00
2023-02-19T06:41:21.584Z,101690.00
2023-02-19T06:43:48.812Z,101687.00
2023-02-19T06:46:16.277Z,101680.00
2023-02-19T06:48:45.715Z,101689.00
2023-02-19T06:51:19.741Z,101706.00
2023-02-19T06:53:47.245Z,101712.00
2023-02-19T06:56:46.946Z,101718.00
2023-02-19T06:59:19.441Z,101723.00
2023-02-19T07:01:47.508Z,101737.00
2023-02-19T07:04:16.099Z,101718.00
2023-02-19T07:15:24.238Z,101733.00
2023-02-19T07:17:52.207Z,101732.00
2023-02-19T07:20:19.995Z,101739.00
2023-02-19T07:22:47.549Z,101747.00
2023-02-19T07:25:15.161Z,101751.00
2023-02-19T07:27:42.613Z,101749.00
2023-02-19T07:30:11.997Z,101759.00
2023-02-19T07:57:44.603Z,101804.00
2023-02-19T08:00:12.697Z,101800.00
2023-02-19T08:03:01.504Z,101813.00
2023-02-19T08:05:32.749Z,101822.00
2023-02-19T08:08:01.523Z,101812.00
2023-02-19T08:10:47.373Z,101820.00
2023-02-19T08:13:20.083Z,101818.00
2023-02-19T08:16:17.312Z,101827.00
2023-02-19T08:18:49.373Z,101830.00
2023-02-19T08:21:21.035Z,101831.00
2023-02-19T08:23:50.908Z,101834.00
2023-02-19T08:26:19.164Z,101836.00
2023-02-19T08:28:46.531Z,101838.00
2023-02-19T08:31:14.479Z,101839.00
2023-02-19T08:33:44.853Z,101839.00
2023-02-19T08:36:12.596Z,101846.00
2023-02-19T08:38:40.140Z,101843.00
2023-02-19T08:41:14.152Z,101853.00
2023-02-19T08:43:44.257Z,101853.00
2023-02-19T08:46:15.743Z,101858.00
2023-02-19T08:48:43.037Z,101853.00
2023-02-19T08:51:13.149Z,101857.00
2023-02-19T08:53:41.939Z,101858.00
2023-02-19T08:56:16.564Z,101859.00
2023-02-19T08:58:45.158Z,101864.00
2023-02-19T09:01:16.826Z,101870.00
2023-02-19T09:03:44.460Z,101882.00
2023-02-19T09:06:21.534Z,101882.00
2023-02-19T09:08:49.033Z,101886.00
2023-02-19T09:11:16.474Z,101895.00
2023-02-19T09:13:44.853Z,101905.00
2023-02-19T09:16:12.530Z,101901.00
2023-02-19T09:18:39.826Z,101902.00
2023-02-19T09:21:11.211Z,101899.00
2023-02-19T09:23:38.852Z,101897.00
2023-02-19T09:26:11.650Z,101892.00
2023-02-19T09:41:32.079Z,101907.00
2023-02-19T09:44:06.270Z,101903.00
2023-02-19T09:51:23.731Z,101907.00
2023-02-19T09:53:52.703Z,101892.00
2023-02-19T09:56:22.405Z,101904.00
2023-02-19T09:58:54.715Z,101909.00
2023-02-19T10:01:27.513Z,101927.00
2023-02-19T10:03:55.184Z,101906.00
2023-02-19T10:07:23.296Z,101941.00
2023-02-19T10:11:05.515Z,101957.00
2023-02-19T10:13:45.746Z,101964.00
2023-02-19T10:16:19.616Z,101970.00
2023-02-19T10:23:52.817Z,101976.00
2023-02-19T10:26:20.804Z,101977.00
2023-02-19T10:29:07.122Z,101988.00
2023-02-19T10:31:34.766Z,101990.00
2023-02-19T10:34:03.109Z,101998.00
2023-02-19T10:36:45.549Z,102000.00
2023-02-19T10:39:42.708Z,102007.00
2023-02-19T10:42:23.942Z,102017.00
2023-02-19T10:45:02.089Z,102011.00
2023-02-19T10:47:33.286Z,102012.00
2023-02-19T10:50:04.378Z,102021.00
2023-02-19T10:52:36.911Z,102025.00
2023-02-19T10:55:34.540Z,102030.00
2023-02-19T10:58:28.153Z,102035.00
2023-02-19T11:01:17.740Z,102047.00
2023-02-19T11:03:46.463Z,102052.00
2023-02-19T11:06:17.788Z,102050.00
2023-02-19T11:08:53.570Z,102045.00
2023-02-19T11:11:39.681Z,102044.00
2023-02-19T11:18:32.325Z,102052.00
2023-02-19T11:21:08.562Z,102049.00
2023-02-19T11:23:47.083Z,102043.00
2023-02-19T11:26:28.771Z,102037.00
2023-02-19T11:30:52.846Z,102036.00
2023-02-19T11:33:27.582Z,102022.00
2023-02-19T11:36:30.035Z,102019.00
2023-02-19T11:39:03.674Z,102013.00
2023-02-19T11:42:00.639Z,102010.00
2023-02-19T11:48:37.453Z,102020.00
2023-02-19T11:51:36.004Z,102012.00
2023-02-19T11:58:42.363Z,102013.00
2023-02-19T12:01:59.713Z,102017.00
2023-02-19T12:04:42.218Z,102016.00
2023-02-19T12:15:51.282Z,102027.00
2023-02-19T12:18:49.212Z,102027.00
2023-02-19T12:21:57.253Z,102021.00
2023-02-19T12:25:07.407Z,102012.00
2023-02-19T12:27:42.596Z,102025.00
2023-02-19T12:30:19.133Z,102030.00
2023-02-19T12:33:43.661Z,102036.00
2023-02-19T12:36:50.875Z,102032.00
2023-02-19T12:40:21.827Z,102039.00
2023-02-19T12:43:21.342Z,102042.00
2023-02-19T12:46:03.121Z,102027.00
2023-02-19T12:48:39.788Z,102029.00
2023-02-19T12:51:20.418Z,102028.00
2023-02-19T12:54:03.029Z,102027.00
2023-02-19T12:56:39.557Z,102020.00
2023-02-19T12:59:27.053Z,102027.00
2023-02-19T13:02:21.209Z,102021.00
2023-02-19T13:05:03.520Z,102022.00
2023-02-19T13:07:48.442Z,102020.00
2023-02-19T13:10:46.465Z,102044.00
2023-02-19T13:13:30.982Z,102042.00
2023-02-19T13:16:15.098Z,102048.00
2023-02-19T13:18:50.360Z,102046.00
2023-02-19T13:21:41.718Z,102051.00
2023-02-19T13:30:18.722Z,102045.00
2023-02-19T13:37:51.466Z,102062.00
2023-02-19T13:44:29.797Z,102057.00
2023-02-19T13:46:58.150Z,102055.00
2023-02-19T13:49:28.725Z,102067.00
2023-02-19T13:52:03.445Z,102067.00
2023-02-19T13:54:36.438Z,102063.00
2023-02-19T13:57:32.620Z,102067.00
2023-02-19T14:00:01.030Z,102077.00
2023-02-19T14:02:35.607Z,102095.00
2023-02-19T14:05:11.578Z,102090.00
2023-02-19T14:07:54.861Z,102094.00
2023-02-19T14:10:55.822Z,102100.00
2023-02-19T14:13:48.010Z,102095.00
2023-02-19T14:16:47.366Z,102095.00
2023-02-19T14:19:36.735Z,102092.00
2023-02-19T14:22:45.850Z,102117.00
2023-02-19T14:25:33.168Z,102113.00
2023-02-19T14:28:33.627Z,102121.00
2023-02-19T14:31:35.472Z,102111.00
2023-02-19T14:34:25.360Z,102108.00
2023-02-19T14:37:01.294Z,102113.00
2023-02-19T14:39:41.382Z,102126.00
2023-02-19T14:42:23.242Z,102120.00
2023-02-19T14:45:01.521Z,102121.00
2023-02-19T14:47:35.124Z,102121.00
2023-02-19T14:50:09.781Z,102141.00
2023-02-19T14:52:44.751Z,102131.00
2023-02-19T14:55:28.091Z,102126.00
2023-02-19T14:57:58.599Z,102126.00
2023-02-19T15:00:37.642Z,102121.00
2023-02-19T15:03:07.055Z,102127.00
2023-02-19T15:05:37.697Z,102121.00
2023-02-19T15:08:15.705Z,102118.00
2023-02-19T15:10:44.045Z,102110.00
2023-02-19T15:13:17.667Z,102110.00
2023-02-19T15:15:46.747Z,102097.00
2023-02-19T15:18:28.393Z,102109.00
2023-02-19T15:21:06.004Z,102115.00
2023-02-19T15:23:36.096Z,102099.00
2023-02-19T15:26:04.275Z,102109.00
2023-02-19T15:28:34.611Z,102098.00
2023-02-19T15:31:02.419Z,102091.00
2023-02-19T15:33:29.826Z,102092.00
2023-02-19T15:36:05.953Z,102089.00
2023-02-19T15:38:34.205Z,102093.00
2023-02-19T15:41:01.672Z,102095.00
2023-02-19T15:43:44.590Z,102106.00
2023-02-19T15:46:24.913Z,102107.00
2023-02-19T15:49:19.288Z,102113.00
2023-02-19T15:51:57.080Z,102104.00
2023-02-19T15:54:36.225Z,102114.00
2023-02-19T15:57:17.510Z,102125.00
2023-02-19T15:59:54.066Z,102132.00
2023-02-19T16:02:22.013Z,102137.00
2023-02-19T16:04:49.542Z,102139.00
2023-02-19T16:07:35.193Z,102137.00
2023-02-19T16:10:23.138Z,102147.00
2023-02-19T16:13:06.792Z,102160.00
2023-02-19T16:15:35.270Z,102165.00
2023-02-19T16:18:02.943Z,102164.00
2023-02-19T16:20:34.997Z,102184.00
2023-02-19T16:23:11.330Z,102172.00
2023-02-19T16:25:45.267Z,102168.00
2023-02-19T16:28:23.160Z,102170.00
2023-02-19T16:31:32.327Z,102161.00
2023-02-19T16:34:32.400Z,102163.00
2023-02-19T16:37:05.783Z,102186.00
2023-02-19T16:40:16.808Z,102190.00
2023-02-19T16:42:50.447Z,102201.00
2023-02-19T16:45:18.560Z,102205.00
2023-02-19T16:47:51.303Z,102207.00
2023-02-19T16:50:56.136Z,102215.00
2023-02-19T16:53:25.372Z,102224.00
2023-02-19T16:55:52.874Z,102218.00
2023-02-19T16:58:20.432Z,102235.00
2023-02-19T17:00:47.850Z,102236.00
2023-02-19T17:03:19.932Z,102232.00
2023-02-19T17:05:50.964Z,102247.00
2023-02-19T17:08:34.204Z,102246.00
2023-02-19T17:11:11.725Z,102254.00
2023-02-19T17:13:39.825Z,102251.00
2023-02-19T17:16:08.163Z,102256.00
2023-02-19T17:18:35.552Z,102256.00
2023-02-19T17:21:15.552Z,102255.00
2023-02-19T17:23:42.678Z,102247.00
2023-02-19T17:26:22.146Z,102242.00
2023-02-19T17:28:50.226Z,102248.00
2023-02-19T17:31:55.222Z,102249.00
2023-02-19T17:34:22.495Z,102257.00
2023-02-19T17:36:49.926Z,102264.00
2023-02-19T17:39:17.273Z,102273.00
2023-02-19T17:41:44.754Z,102272.00
2023-02-19T17:44:12.440Z,102280.00
2023-02-19T17:46:40.216Z,102288.00
2023-02-19T17:49:08.016Z,102283.00
2023-02-19T17:51:36.057Z,102286.00
2023-02-19T17:54:03.492Z,102285.00
2023-02-19T18:00:40.668Z,102282.00
2023-02-19T18:03:08.158Z,102285.00
2023-02-19T18:05:35.374Z,102291.00
2023-02-19T18:08:02.719Z,102294.00
2023-02-19T18:10:30.619Z,102287.00
2023-02-19T18:12:59.372Z,102290.00
2023-02-19T18:16:59.495Z,102297.00
2023-02-19T18:28:04.451Z,102290.00
2023-02-19T18:30:31.694Z,102286.00
2023-02-19T18:32:59.434Z,102279.00
2023-02-19T18:35:26.910Z,102287.00
2023-02-19T18:37:55.258Z,102270.00
2023-02-19T18:40:26.176Z,102281.00
2023-02-19T18:42:54.088Z,102291.00
2023-02-19T18:45:21.796Z,102291.00
2023-02-19T18:47:50.890Z,102303.00
2023-02-19T18:50:20.823Z,102301.00
2023-02-19T18:52:48.457Z,102302.00
2023-02-19T18:55:16.118Z,102317.00
2023-02-19T18:57:44.243Z,102318.00
2023-02-19T19:00:20.819Z,102310.00
2023-02-19T19:02:50.499Z,102317.00
2023-02-19T19:05:23.287Z,102329.00
2023-02-19T19:07:56.924Z,102319.00
2023-02-19T19:10:24.635Z,102320.00
2023-02-19T19:12:52.507Z,102317.00
2023-02-19T19:15:22.848Z,102322.00
2023-02-19T19:17:53.629Z,102321.00
2023-02-19T19:20:27.043Z,102314.00
2023-02-19T19:22:54.942Z,102307.00
2023-02-19T19:25:23.439Z,102310.00
2023-02-19T19:27:54.784Z,102319.00
2023-02-19T19:30:22.319Z,102318.00
2023-02-19T19:32:52.394Z,102311.00
2023-02-19T19:35:21.473Z,102309.00
2023-02-19T19:37:50.267Z,102319.00
2023-02-19T19:40:18.891Z,102326.00
2023-02-19T19:42:47.252Z,102324.00
2023-02-19T19:45:15.537Z,102327.00
2023-02-19T19:47:46.082Z,102332.00
2023-02-19T19:50:14.771Z,102330.00
2023-02-19T19:52:42.530Z,102338.00
2023-02-19T19:59:33.395Z,102340.00
2023-02-19T20:06:10.144Z,102330.00
2023-02-19T20:08:37.541Z,102342.00
2023-02-19T20:11:05.179Z,102339.00
2023-02-19T20:13:34.067Z,102342.00
2023-02-19T20:16:01.598Z,102342.00
2023-02-19T20:18:31.238Z,102332.00
2023-02-19T20:21:00.415Z,102348.00
2023-02-19T20:23:28.849Z,102355.00
2023-02-19T20:25:59.327Z,102365.00
2023-02-19T20:28:26.756Z,102369.00
2023-02-19T20:30:57.919Z,102368.00
2023-02-19T20:33:25.811Z,102370.00
2023-02-19T20:35:56.060Z,102362.00
2023-02-19T20:38:23.573Z,102376.00
2023-02-19T20:40:51.016Z,102391.00
2023-02-19T20:47:28.566Z,102391.00
2023-02-19T20:49:55.881Z,102393.00
2023-02-19T20:52:25.240Z,102376.00
2023-02-19T20:54:56.958Z,102384.00
2023-02-19T20:57:24.926Z,102368.00
2023-02-19T20:59:52.204Z,102376.00
2023-02-19T21:02:29.427Z,102371.00
2023-02-19T21:04:58.541Z,102369.00
2023-02-19T21:07:26.438Z,102365.00
2023-02-19T21:09:54.722Z,102352.00
2023-02-19T21:12:23.381Z,102360.00
2023-02-19T21:14:50.880Z,102360.00
2023-02-19T21:17:24.214Z,102357.00
2023-02-19T21:19:51.774Z,102358.00
2023-02-19T21:22:19.031Z,102348.00
2023-02-19T21:24:49.925Z,102367.00
2023-02-19T21:27:17.217Z,102366.00
2023-02-19T21:29:44.810Z,102359.00
2023-02-19T21:32:15.232Z,102365.00
2023-02-19T21:34:43.244Z,102366.00
2023-02-19T21:37:13.328Z,102382.00
2023-02-19T21:39:43.123Z,102377.00
2023-02-19T21:42:10.657Z,102361.00
2023-02-19T21:44:38.220Z,102364.00
2023-02-19T21:47:05.900Z,102365.00
2023-02-19T21:49:36.934Z,102354.00
2023-02-19T21:52:04.539Z,102347.00
2023-02-19T21:54:32.297Z,102353.00
2023-02-19T21:57:03.706Z,102331.00
2023-02-19T21:59:31.626Z,102341.00
2023-02-19T22:02:01.531Z,102348.00
2023-02-19T22:04:28.971Z,102348.00
2023-02-19T22:06:59.865Z,102348.00
2023-02-19T22:09:27.603Z,102350.00
2023-02-19T22:11:54.881Z,102329.00
2023-02-19T22:14:22.389Z,102351.00
2023-02-19T22:16:50.430Z,102349.00
2023-02-19T22:19:18.667Z,102356.00
2023-02-19T22:21:46.121Z,102357.00
2023-02-19T22:24:20.475Z,102352.00
2023-02-19T22:30:48.247Z,102352.00
2023-02-19T22:33:15.841Z,102362.00
2023-02-19T22:35:43.318Z,102333.00
2023-02-19T22:38:10.940Z,102359.00
2023-02-19T22:40:38.252Z,102363.00
2023-02-19T22:43:05.478Z,102361.00
2023-02-19T22:45:32.825Z,102362.00
2023-02-19T22:48:00.021Z,102347.00
2023-02-19T22:50:27.312Z,102353.00
2023-02-19T22:52:55.238Z,102350.00
2023-02-19T22:55:25.432Z,102353.00
2023-02-19T22:57:52.668Z,102341.00
2023-02-19T23:00:25.306Z,102348.00
2023-02-19T23:02:52.552Z,102342.00
2023-02-19T23:05:19.973Z,102345.00
2023-02-19T23:07:47.377Z,102351.00
2023-02-19T23:10:14.827Z,102345.00
2023-02-19T23:12:42.673Z,102349.00
2023-02-19T23:15:11.099Z,102342.00
2023-02-19T23:17:38.272Z,102338.00
2023-02-19T23:20:06.334Z,102343.00
2023-02-19T23:22:35.415Z,102330.00
2023-02-19T23:25:03.587Z,102330.00
2023-02-19T23:27:30.952Z,102332.00
2023-02-19T23:29:58.398Z,102326.00
2023-02-19T23:32:25.862Z,102326.00
2023-02-19T23:34:53.407Z,102325.00
2023-02-19T23:37:21.149Z,102317.00
2023-02-19T23:39:48.426Z,102315.00
2023-02-19T23:42:17.024Z,102302.00
2023-02-19T23:44:47.490Z,102314.00
2023-02-19T23:47:14.891Z,102308.00
2023-02-19T23:49:42.156Z,102315.00
2023-02-19T23:52:10.528Z,102316.00
2023-02-19T23:54:37.812Z,102304.00
2023-02-19T23:57:05.280Z,102291.00
2023-02-19T23:59:32.581Z,102300.00
